Aeroporto :
LOGIN :

Iscrizione | Disclaimer

   EN    FR    IT 

 










Sommario :    VFR   VFR Marginale   IFR   IFR Intensivo   IFR Molto Intensivo
Visibilità : 
Base nubi : 
>= 8 km
>= 3000ft
5 / 8 km
1000 / 3000 ft
1500m / 5 km
500 / 1000 ft
800 / 1500m
200 / 500 ft
< 800m
< 200 ft
Simboli :   Temporali  Nebbia  Neve Forte  Precipitazioni Forti  Vento > 20 kt
SIGMETs :   Varie  Temporali  Ghiacco  Turbolenza  Onda orograficha  Ceneri Vulcaniche







- Altitudine del aeroporto : 12 ft
- Codice IATA : NCE
- Carte del aeroporto


LFMN - Nice

ULTIMO METAR :
  • 161400Z 16003KT 8000 NSC 16/08 Q1030 NOSIG

METARs OBSOLETI :
  • 161330Z 16004KT 8000 NSC 16/07 Q1030 NOSIG
  • 161300Z 19005KT CAVOK 16/06 Q1030 NOSIG
  • 161230Z 18004KT CAVOK 16/07 Q1030 NOSIG
  • 161200Z 18005KT CAVOK 17/06 Q1031 NOSIG
  • 161130Z 20004KT CAVOK 17/M00 Q1031 NOSIG

TAF TAF LFMN
Valido dal 16 a 09 ore il 17 a 15 ore UTC


160800Z 1609/1715 34010KT CAVOK
BECMG 1609/1611 16010KT
BECMG 1617/1620 34010KT
PROB40
TEMPO 1700/1709 BKN010
PROB30
TEMPO 1700/1707 4000 BR
BECMG 1709/1711 16010KT
ATIS : +33 4 93 17 21 16
Nessun NOTAM noto per questo aeroporto.



MetMap, La meteo Aeronautica in un colpo d'occhio ! - Copyright ORBIFLY Dicembre 2007 - Disclaimer

ORBIFLY MET'MAP TEAM :

Programmazione e sviluppo : Alexandra Zaïnal
Concezione e sviluppo : Baudouin d'Aumeries
Co-Programmazione e sviluppo : Marc-Olivier Méhu
Supporto tecnico e logistico : Manuel Goepfert
Aiuto per la traduzione : Arnaldo La Scala

Contatto : metmap@orbifly.com




FONTI E CREDITI :

   NOAA